sensor_id;sensor_type;location;lat;lon;timestamp;pressure;altitude;pressure_sealevel;temperature;humidity
64916;BME280;51427;-27.442;153.014;2024-02-28T00:02:18;101778.91;;;29.98;55.79
64916;BME280;51427;-27.442;153.014;2024-02-28T00:04:46;101780.50;;;29.80;55.34
64916;BME280;51427;-27.442;153.014;2024-02-28T00:07:14;101783.75;;;29.82;57.04
64916;BME280;51427;-27.442;153.014;2024-02-28T00:09:42;101787.00;;;29.30;56.67
64916;BME280;51427;-27.442;153.014;2024-02-28T00:12:10;101786.00;;;28.91;57.08
64916;BME280;51427;-27.442;153.014;2024-02-28T00:14:37;101791.72;;;28.66;57.33
64916;BME280;51427;-27.442;153.014;2024-02-28T00:17:05;101783.19;;;29.06;58.00
64916;BME280;51427;-27.442;153.014;2024-02-28T00:19:32;101778.44;;;29.77;56.27
64916;BME280;51427;-27.442;153.014;2024-02-28T00:22:00;101773.59;;;30.12;54.96
64916;BME280;51427;-27.442;153.014;2024-02-28T00:24:28;101763.75;;;30.60;53.15
64916;BME280;51427;-27.442;153.014;2024-02-28T00:26:56;101769.03;;;31.11;51.36
64916;BME280;51427;-27.442;153.014;2024-02-28T00:29:24;101771.03;;;30.03;54.26
64916;BME280;51427;-27.442;153.014;2024-02-28T00:31:51;101765.44;;;29.84;56.99
64916;BME280;51427;-27.442;153.014;2024-02-28T00:34:19;101765.97;;;29.04;56.36
64916;BME280;51427;-27.442;153.014;2024-02-28T00:36:47;101762.53;;;29.11;56.68
64916;BME280;51427;-27.442;153.014;2024-02-28T00:39:14;101758.09;;;29.60;56.90
64916;BME280;51427;-27.442;153.014;2024-02-28T00:41:42;101761.13;;;29.71;55.19
64916;BME280;51427;-27.442;153.014;2024-02-28T00:44:10;101760.63;;;30.23;54.13
64916;BME280;51427;-27.442;153.014;2024-02-28T00:46:38;101749.84;;;29.48;55.50
64916;BME280;51427;-27.442;153.014;2024-02-28T00:49:06;101754.06;;;29.07;56.84
64916;BME280;51427;-27.442;153.014;2024-02-28T00:51:34;101749.09;;;29.51;56.76
64916;BME280;51427;-27.442;153.014;2024-02-28T00:54:04;101751.41;;;30.23;55.09
64916;BME280;51427;-27.442;153.014;2024-02-28T00:56:31;101744.78;;;30.11;55.62
64916;BME280;51427;-27.442;153.014;2024-02-28T00:58:59;101749.31;;;29.97;54.95
64916;BME280;51427;-27.442;153.014;2024-02-28T01:01:27;101745.56;;;29.89;56.73
64916;BME280;51427;-27.442;153.014;2024-02-28T01:03:54;101742.13;;;29.80;54.64
64916;BME280;51427;-27.442;153.014;2024-02-28T01:06:22;101743.22;;;29.22;55.50
64916;BME280;51427;-27.442;153.014;2024-02-28T01:08:49;101740.59;;;29.13;55.03
64916;BME280;51427;-27.442;153.014;2024-02-28T01:11:17;101731.53;;;29.70;53.65
64916;BME280;51427;-27.442;153.014;2024-02-28T01:13:45;101735.75;;;29.45;54.80
64916;BME280;51427;-27.442;153.014;2024-02-28T01:16:12;101738.88;;;29.40;55.79
64916;BME280;51427;-27.442;153.014;2024-02-28T01:18:40;101740.03;;;29.23;56.15
64916;BME280;51427;-27.442;153.014;2024-02-28T01:21:07;101743.16;;;29.53;54.28
64916;BME280;51427;-27.442;153.014;2024-02-28T01:23:35;101738.63;;;29.29;55.20
64916;BME280;51427;-27.442;153.014;2024-02-28T01:26:04;101735.94;;;29.71;56.29
64916;BME280;51427;-27.442;153.014;2024-02-28T01:28:32;101730.22;;;29.13;55.60
64916;BME280;51427;-27.442;153.014;2024-02-28T01:31:00;101728.81;;;29.04;56.84
64916;BME280;51427;-27.442;153.014;2024-02-28T01:33:28;101729.94;;;29.34;57.15
64916;BME280;51427;-27.442;153.014;2024-02-28T01:35:56;101732.25;;;29.67;55.94
64916;BME280;51427;-27.442;153.014;2024-02-28T01:38:23;101732.91;;;29.60;55.29
64916;BME280;51427;-27.442;153.014;2024-02-28T01:40:53;101735.19;;;29.55;56.46
64916;BME280;51427;-27.442;153.014;2024-02-28T01:43:21;101723.91;;;30.28;55.58
64916;BME280;51427;-27.442;153.014;2024-02-28T01:45:49;101726.97;;;30.00;54.88
64916;BME280;51427;-27.442;153.014;2024-02-28T01:48:17;101724.28;;;30.27;55.56
64916;BME280;51427;-27.442;153.014;2024-02-28T01:50:46;101724.66;;;29.48;55.60
64916;BME280;51427;-27.442;153.014;2024-02-28T01:53:14;101719.50;;;29.70;55.51
64916;BME280;51427;-27.442;153.014;2024-02-28T01:55:42;101721.38;;;30.00;54.23
64916;BME280;51427;-27.442;153.014;2024-02-28T01:58:10;101718.94;;;29.99;55.21
64916;BME280;51427;-27.442;153.014;2024-02-28T02:00:40;101722.09;;;29.78;54.96
64916;BME280;51427;-27.442;153.014;2024-02-28T02:03:08;101715.56;;;29.90;54.92
64916;BME280;51427;-27.442;153.014;2024-02-28T02:05:36;101726.38;;;29.72;52.76
64916;BME280;51427;-27.442;153.014;2024-02-28T02:08:04;101707.09;;;30.28;53.46
64916;BME280;51427;-27.442;153.014;2024-02-28T02:10:32;101708.44;;;30.15;54.00
64916;BME280;51427;-27.442;153.014;2024-02-28T02:13:06;101711.41;;;30.45;52.28
64916;BME280;51427;-27.442;153.014;2024-02-28T02:15:34;101697.50;;;30.29;52.61
64916;BME280;51427;-27.442;153.014;2024-02-28T02:18:02;101699.25;;;30.15;53.77
64916;BME280;51427;-27.442;153.014;2024-02-28T02:20:33;101701.66;;;29.93;54.75
64916;BME280;51427;-27.442;153.014;2024-02-28T02:23:04;101684.47;;;29.95;54.35
64916;BME280;51427;-27.442;153.014;2024-02-28T02:25:32;101694.03;;;29.94;53.85
64916;BME280;51427;-27.442;153.014;2024-02-28T02:27:59;101692.47;;;30.38;53.24
64916;BME280;51427;-27.442;153.014;2024-02-28T02:30:27;101675.72;;;31.14;52.44
64916;BME280;51427;-27.442;153.014;2024-02-28T02:32:55;101683.25;;;30.38;51.83
64916;BME280;51427;-27.442;153.014;2024-02-28T02:35:22;101676.47;;;30.39;51.95
64916;BME280;51427;-27.442;153.014;2024-02-28T02:37:50;101683.25;;;29.77;53.67
64916;BME280;51427;-27.442;153.014;2024-02-28T02:40:18;101678.03;;;30.59;52.67
64916;BME280;51427;-27.442;153.014;2024-02-28T02:42:45;101682.88;;;30.62;51.36
64916;BME280;51427;-27.442;153.014;2024-02-28T02:45:13;101671.56;;;30.32;53.39
64916;BME280;51427;-27.442;153.014;2024-02-28T02:47:41;101675.75;;;30.42;53.53
64916;BME280;51427;-27.442;153.014;2024-02-28T02:50:11;101676.34;;;29.71;54.54
64916;BME280;51427;-27.442;153.014;2024-02-28T02:52:39;101663.75;;;29.42;54.85
64916;BME280;51427;-27.442;153.014;2024-02-28T02:55:07;101665.63;;;30.37;51.27
64916;BME280;51427;-27.442;153.014;2024-02-28T02:57:36;101660.16;;;30.67;52.01
64916;BME280;51427;-27.442;153.014;2024-02-28T03:00:04;101670.88;;;30.39;51.75
64916;BME280;51427;-27.442;153.014;2024-02-28T03:02:35;101656.72;;;30.32;51.40
64916;BME280;51427;-27.442;153.014;2024-02-28T03:05:06;101659.75;;;30.42;52.01
64916;BME280;51427;-27.442;153.014;2024-02-28T03:07:34;101653.66;;;29.95;53.44
64916;BME280;51427;-27.442;153.014;2024-02-28T03:10:02;101645.63;;;29.55;54.46
64916;BME280;51427;-27.442;153.014;2024-02-28T03:12:30;101649.66;;;29.77;53.83
64916;BME280;51427;-27.442;153.014;2024-02-28T03:14:58;101648.06;;;29.56;55.12
64916;BME280;51427;-27.442;153.014;2024-02-28T03:17:25;101645.41;;;29.83;55.42
64916;BME280;51427;-27.442;153.014;2024-02-28T03:19:53;101652.66;;;29.64;56.04
64916;BME280;51427;-27.442;153.014;2024-02-28T03:22:21;101648.22;;;29.44;56.55
64916;BME280;51427;-27.442;153.014;2024-02-28T03:24:48;101646.81;;;29.35;56.97
64916;BME280;51427;-27.442;153.014;2024-02-28T03:27:16;101638.94;;;29.59;56.25
64916;BME280;51427;-27.442;153.014;2024-02-28T03:29:44;101646.81;;;30.15;52.74
64916;BME280;51427;-27.442;153.014;2024-02-28T03:32:11;101625.59;;;30.59;51.46
64916;BME280;51427;-27.442;153.014;2024-02-28T03:34:39;101631.78;;;30.46;53.39
64916;BME280;51427;-27.442;153.014;2024-02-28T03:37:07;101622.56;;;30.72;52.80
64916;BME280;51427;-27.442;153.014;2024-02-28T03:39:36;101628.91;;;30.20;53.38
64916;BME280;51427;-27.442;153.014;2024-02-28T03:42:04;101614.72;;;30.32;53.83
64916;BME280;51427;-27.442;153.014;2024-02-28T03:44:31;101618.59;;;29.82;55.72
64916;BME280;51427;-27.442;153.014;2024-02-28T03:46:59;101621.06;;;30.29;54.26
64916;BME280;51427;-27.442;153.014;2024-02-28T03:49:26;101619.66;;;29.54;55.79
64916;BME280;51427;-27.442;153.014;2024-02-28T03:51:54;101615.78;;;29.40;55.63
64916;BME280;51427;-27.442;153.014;2024-02-28T03:54:22;101612.41;;;29.92;54.91
64916;BME280;51427;-27.442;153.014;2024-02-28T03:56:49;101607.19;;;30.13;54.67
64916;BME280;51427;-27.442;153.014;2024-02-28T03:59:17;101609.97;;;30.13;53.91
64916;BME280;51427;-27.442;153.014;2024-02-28T04:01:45;101610.88;;;30.66;53.46
64916;BME280;51427;-27.442;153.014;2024-02-28T04:04:12;101591.44;;;30.05;53.40
64916;BME280;51427;-27.442;153.014;2024-02-28T04:06:40;101608.84;;;29.95;54.41
64916;BME280;51427;-27.442;153.014;2024-02-28T04:09:08;101596.22;;;29.62;53.73
64916;BME280;51427;-27.442;153.014;2024-02-28T04:11:37;101607.34;;;30.01;53.63
64916;BME280;51427;-27.442;153.014;2024-02-28T04:14:05;101603.41;;;29.83;53.40
64916;BME280;51427;-27.442;153.014;2024-02-28T04:16:32;101586.00;;;30.38;53.15
64916;BME280;51427;-27.442;153.014;2024-02-28T04:19:00;101603.91;;;30.34;52.46
64916;BME280;51427;-27.442;153.014;2024-02-28T04:21:28;101595.84;;;30.29;52.32
64916;BME280;51427;-27.442;153.014;2024-02-28T04:23:55;101587.34;;;30.22;51.84
64916;BME280;51427;-27.442;153.014;2024-02-28T04:26:23;101584.47;;;30.18;52.05
64916;BME280;51427;-27.442;153.014;2024-02-28T04:28:50;101593.28;;;29.97;51.55
64916;BME280;51427;-27.442;153.014;2024-02-28T04:31:18;101589.56;;;30.35;51.30
64916;BME280;51427;-27.442;153.014;2024-02-28T04:33:46;101592.47;;;30.20;51.47
64916;BME280;51427;-27.442;153.014;2024-02-28T04:36:13;101582.91;;;29.98;50.86
64916;BME280;51427;-27.442;153.014;2024-02-28T04:38:42;101585.84;;;30.54;50.67
64916;BME280;51427;-27.442;153.014;2024-02-28T04:41:10;101589.75;;;30.23;50.54
64916;BME280;51427;-27.442;153.014;2024-02-28T04:43:38;101587.44;;;30.06;50.54
64916;BME280;51427;-27.442;153.014;2024-02-28T04:46:05;101583.16;;;30.12;50.56
64916;BME280;51427;-27.442;153.014;2024-02-28T04:48:33;101574.44;;;30.17;51.07
64916;BME280;51427;-27.442;153.014;2024-02-28T04:51:01;101581.69;;;30.44;51.23
64916;BME280;51427;-27.442;153.014;2024-02-28T04:53:29;101591.03;;;29.84;51.45
64916;BME280;51427;-27.442;153.014;2024-02-28T04:55:57;101584.78;;;30.13;51.16
64916;BME280;51427;-27.442;153.014;2024-02-28T04:58:24;101583.72;;;30.21;51.11
64916;BME280;51427;-27.442;153.014;2024-02-28T05:00:52;101586.84;;;29.93;51.80
64916;BME280;51427;-27.442;153.014;2024-02-28T05:03:20;101579.44;;;29.62;52.24
64916;BME280;51427;-27.442;153.014;2024-02-28T05:05:49;101582.09;;;29.55;52.72
64916;BME280;51427;-27.442;153.014;2024-02-28T05:08:17;101585.63;;;29.52;52.02
64916;BME280;51427;-27.442;153.014;2024-02-28T05:10:45;101587.25;;;29.53;52.35
64916;BME280;51427;-27.442;153.014;2024-02-28T05:13:13;101592.19;;;29.41;52.48
64916;BME280;51427;-27.442;153.014;2024-02-28T05:15:40;101581.81;;;29.41;52.65
64916;BME280;51427;-27.442;153.014;2024-02-28T05:18:08;101586.78;;;29.71;52.57
64916;BME280;51427;-27.442;153.014;2024-02-28T05:20:36;101578.53;;;29.78;52.21
64916;BME280;51427;-27.442;153.014;2024-02-28T05:23:04;101581.19;;;29.90;52.37
64916;BME280;51427;-27.442;153.014;2024-02-28T05:25:31;101590.75;;;29.70;52.29
64916;BME280;51427;-27.442;153.014;2024-02-28T05:27:59;101585.50;;;29.45;51.63
64916;BME280;51427;-27.442;153.014;2024-02-28T05:30:27;101581.88;;;29.64;52.04
64916;BME280;51427;-27.442;153.014;2024-02-28T05:32:54;101579.41;;;29.40;53.09
64916;BME280;51427;-27.442;153.014;2024-02-28T05:35:22;101579.63;;;29.50;52.69
64916;BME280;51427;-27.442;153.014;2024-02-28T05:37:53;101583.28;;;29.54;53.58
64916;BME280;51427;-27.442;153.014;2024-02-28T05:40:21;101583.38;;;29.39;53.20
64916;BME280;51427;-27.442;153.014;2024-02-28T05:42:49;101572.53;;;29.37;52.18
64916;BME280;51427;-27.442;153.014;2024-02-28T05:45:17;101564.66;;;29.43;53.85
64916;BME280;51427;-27.442;153.014;2024-02-28T05:47:44;101564.41;;;29.29;53.98
64916;BME280;51427;-27.442;153.014;2024-02-28T05:50:12;101569.09;;;29.44;54.12
64916;BME280;51427;-27.442;153.014;2024-02-28T05:52:42;101583.63;;;29.72;53.64
64916;BME280;51427;-27.442;153.014;2024-02-28T05:55:10;101576.00;;;29.31;54.04
64916;BME280;51427;-27.442;153.014;2024-02-28T05:57:38;101578.72;;;29.27;53.56
64916;BME280;51427;-27.442;153.014;2024-02-28T06:00:06;101580.84;;;29.53;54.30
64916;BME280;51427;-27.442;153.014;2024-02-28T06:02:39;101582.28;;;29.43;53.84
64916;BME280;51427;-27.442;153.014;2024-02-28T06:05:08;101578.63;;;29.24;54.19
64916;BME280;51427;-27.442;153.014;2024-02-28T06:07:36;101590.66;;;29.05;54.64
64916;BME280;51427;-27.442;153.014;2024-02-28T06:10:04;101586.28;;;29.07;54.71
64916;BME280;51427;-27.442;153.014;2024-02-28T06:12:31;101574.16;;;29.00;54.10
64916;BME280;51427;-27.442;153.014;2024-02-28T06:14:59;101577.31;;;29.17;54.35
64916;BME280;51427;-27.442;153.014;2024-02-28T06:17:27;101577.97;;;29.11;54.45
64916;BME280;51427;-27.442;153.014;2024-02-28T06:19:54;101577.59;;;29.12;54.24
64916;BME280;51427;-27.442;153.014;2024-02-28T06:22:22;101580.63;;;29.23;54.08
64916;BME280;51427;-27.442;153.014;2024-02-28T06:24:49;101583.06;;;29.25;54.70
64916;BME280;51427;-27.442;153.014;2024-02-28T06:27:17;101576.34;;;28.91;55.54
64916;BME280;51427;-27.442;153.014;2024-02-28T06:29:45;101591.13;;;29.26;56.18
64916;BME280;51427;-27.442;153.014;2024-02-28T06:32:13;101586.34;;;28.92;56.32
64916;BME280;51427;-27.442;153.014;2024-02-28T06:34:41;101579.31;;;28.98;56.68
64916;BME280;51427;-27.442;153.014;2024-02-28T06:37:08;101582.38;;;28.93;56.28
64916;BME280;51427;-27.442;153.014;2024-02-28T06:39:36;101577.28;;;28.79;56.27
64916;BME280;51427;-27.442;153.014;2024-02-28T06:42:04;101580.91;;;28.99;56.29
64916;BME280;51427;-27.442;153.014;2024-02-28T06:44:31;101578.84;;;28.77;56.39
64916;BME280;51427;-27.442;153.014;2024-02-28T06:46:59;101584.94;;;28.82;57.33
64916;BME280;51427;-27.442;153.014;2024-02-28T06:49:27;101579.34;;;28.82;57.04
64916;BME280;51427;-27.442;153.014;2024-02-28T06:51:54;101581.91;;;28.72;57.35
64916;BME280;51427;-27.442;153.014;2024-02-28T06:54:26;101584.09;;;28.47;59.50
64916;BME280;51427;-27.442;153.014;2024-02-28T06:56:54;101588.31;;;28.72;59.20
64916;BME280;51427;-27.442;153.014;2024-02-28T06:59:22;101589.75;;;28.50;60.80
64916;BME280;51427;-27.442;153.014;2024-02-28T07:01:49;101585.28;;;28.30;60.57
64916;BME280;51427;-27.442;153.014;2024-02-28T07:04:17;101589.69;;;28.31;61.53
64916;BME280;51427;-27.442;153.014;2024-02-28T07:06:45;101590.22;;;28.37;61.35
64916;BME280;51427;-27.442;153.014;2024-02-28T07:09:12;101580.03;;;28.44;61.70
64916;BME280;51427;-27.442;153.014;2024-02-28T07:11:42;101585.25;;;28.46;61.53
64916;BME280;51427;-27.442;153.014;2024-02-28T07:14:09;101589.31;;;28.48;60.15
64916;BME280;51427;-27.442;153.014;2024-02-28T07:16:37;101583.03;;;28.36;60.34
64916;BME280;51427;-27.442;153.014;2024-02-28T07:19:04;101584.47;;;28.30;61.18
64916;BME280;51427;-27.442;153.014;2024-02-28T07:21:32;101593.31;;;28.16;61.83
64916;BME280;51427;-27.442;153.014;2024-02-28T07:24:00;101588.03;;;27.99;62.04
64916;BME280;51427;-27.442;153.014;2024-02-28T07:26:27;101592.56;;;27.88;61.61
64916;BME280;51427;-27.442;153.014;2024-02-28T07:28:55;101592.44;;;28.00;62.13
64916;BME280;51427;-27.442;153.014;2024-02-28T07:31:23;101596.31;;;27.95;62.23
64916;BME280;51427;-27.442;153.014;2024-02-28T07:33:50;101600.00;;;27.84;61.53
64916;BME280;51427;-27.442;153.014;2024-02-28T07:36:19;101603.34;;;27.89;62.20
64916;BME280;51427;-27.442;153.014;2024-02-28T07:38:46;101603.91;;;27.95;62.62
64916;BME280;51427;-27.442;153.014;2024-02-28T07:41:14;101604.88;;;27.87;63.53
64916;BME280;51427;-27.442;153.014;2024-02-28T07:43:45;101608.91;;;27.89;63.82
64916;BME280;51427;-27.442;153.014;2024-02-28T07:46:12;101611.91;;;27.81;63.57
64916;BME280;51427;-27.442;153.014;2024-02-28T07:48:40;101601.78;;;27.76;64.45
64916;BME280;51427;-27.442;153.014;2024-02-28T07:51:08;101606.47;;;27.72;64.39
64916;BME280;51427;-27.442;153.014;2024-02-28T07:53:36;101610.88;;;27.73;63.94
64916;BME280;51427;-27.442;153.014;2024-02-28T07:56:04;101612.81;;;27.57;64.46
64916;BME280;51427;-27.442;153.014;2024-02-28T07:58:32;101614.34;;;27.54;64.77
64916;BME280;51427;-27.442;153.014;2024-02-28T08:00:59;101617.47;;;27.53;64.52
64916;BME280;51427;-27.442;153.014;2024-02-28T08:03:27;101627.66;;;27.45;64.55
64916;BME280;51427;-27.442;153.014;2024-02-28T08:05:55;101628.19;;;27.39;64.72
64916;BME280;51427;-27.442;153.014;2024-02-28T08:08:22;101616.59;;;27.37;64.93
64916;BME280;51427;-27.442;153.014;2024-02-28T08:10:50;101626.94;;;27.36;65.43
64916;BME280;51427;-27.442;153.014;2024-02-28T08:13:20;101617.75;;;27.36;65.43
64916;BME280;51427;-27.442;153.014;2024-02-28T08:15:47;101627.66;;;27.33;65.80
64916;BME280;51427;-27.442;153.014;2024-02-28T08:18:15;101629.06;;;27.27;66.34
64916;BME280;51427;-27.442;153.014;2024-02-28T08:20:43;101631.50;;;27.29;65.77
64916;BME280;51427;-27.442;153.014;2024-02-28T08:23:10;101625.09;;;27.28;66.36
64916;BME280;51427;-27.442;153.014;2024-02-28T08:25:38;101639.19;;;27.19;66.87
64916;BME280;51427;-27.442;153.014;2024-02-28T08:28:06;101636.03;;;27.21;66.39
64916;BME280;51427;-27.442;153.014;2024-02-28T08:30:33;101647.44;;;27.16;66.54
64916;BME280;51427;-27.442;153.014;2024-02-28T08:33:01;101637.56;;;27.18;66.69
64916;BME280;51427;-27.442;153.014;2024-02-28T08:35:28;101649.31;;;27.12;66.90
64916;BME280;51427;-27.442;153.014;2024-02-28T08:37:56;101648.50;;;27.11;66.92
64916;BME280;51427;-27.442;153.014;2024-02-28T08:40:24;101658.50;;;27.12;66.98
64916;BME280;51427;-27.442;153.014;2024-02-28T08:42:51;101653.63;;;27.09;66.84
64916;BME280;51427;-27.442;153.014;2024-02-28T08:45:22;101647.13;;;27.05;67.03
64916;BME280;51427;-27.442;153.014;2024-02-28T08:47:49;101659.09;;;27.06;66.63
64916;BME280;51427;-27.442;153.014;2024-02-28T08:50:17;101665.38;;;27.03;66.53
64916;BME280;51427;-27.442;153.014;2024-02-28T08:52:45;101667.69;;;27.01;66.99
64916;BME280;51427;-27.442;153.014;2024-02-28T08:55:13;101667.34;;;27.02;66.93
64916;BME280;51427;-27.442;153.014;2024-02-28T08:57:40;101668.06;;;26.99;66.95
64916;BME280;51427;-27.442;153.014;2024-02-28T09:00:08;101671.41;;;27.05;66.99
64916;BME280;51427;-27.442;153.014;2024-02-28T09:02:36;101676.75;;;26.98;67.43
64916;BME280;51427;-27.442;153.014;2024-02-28T09:05:05;101683.03;;;26.95;67.46
64916;BME280;51427;-27.442;153.014;2024-02-28T09:07:32;101674.91;;;26.90;67.93
64916;BME280;51427;-27.442;153.014;2024-02-28T09:10:05;101691.28;;;26.91;68.25
64916;BME280;51427;-27.442;153.014;2024-02-28T09:12:33;101688.00;;;26.89;68.56
64916;BME280;51427;-27.442;153.014;2024-02-28T09:15:01;101694.28;;;26.86;69.14
64916;BME280;51427;-27.442;153.014;2024-02-28T09:17:29;101695.47;;;26.85;69.13
64916;BME280;51427;-27.442;153.014;2024-02-28T09:19:58;101708.09;;;26.83;68.99
64916;BME280;51427;-27.442;153.014;2024-02-28T09:22:27;101707.75;;;26.84;69.39
64916;BME280;51427;-27.442;153.014;2024-02-28T09:24:55;101710.63;;;26.76;69.10
64916;BME280;51427;-27.442;153.014;2024-02-28T09:27:22;101712.25;;;26.77;69.24
64916;BME280;51427;-27.442;153.014;2024-02-28T09:29:51;101707.84;;;26.76;69.24
64916;BME280;51427;-27.442;153.014;2024-02-28T09:32:19;101715.75;;;26.73;69.48
64916;BME280;51427;-27.442;153.014;2024-02-28T09:34:47;101715.25;;;26.71;69.44
64916;BME280;51427;-27.442;153.014;2024-02-28T09:37:15;101726.31;;;26.80;69.17
64916;BME280;51427;-27.442;153.014;2024-02-28T09:39:44;101720.50;;;26.73;69.07
64916;BME280;51427;-27.442;153.014;2024-02-28T09:42:12;101721.66;;;26.72;69.54
64916;BME280;51427;-27.442;153.014;2024-02-28T09:44:40;101721.53;;;26.68;69.65
64916;BME280;51427;-27.442;153.014;2024-02-28T09:47:10;101725.50;;;26.67;69.93
64916;BME280;51427;-27.442;153.014;2024-02-28T09:49:38;101727.47;;;26.67;69.71
64916;BME280;51427;-27.442;153.014;2024-02-28T09:52:08;101732.09;;;26.63;69.79
64916;BME280;51427;-27.442;153.014;2024-02-28T09:54:36;101728.72;;;26.57;70.39
64916;BME280;51427;-27.442;153.014;2024-02-28T09:57:04;101735.22;;;26.61;70.05
64916;BME280;51427;-27.442;153.014;2024-02-28T09:59:33;101733.38;;;26.53;70.29
64916;BME280;51427;-27.442;153.014;2024-02-28T10:02:03;101738.81;;;26.50;70.74
64916;BME280;51427;-27.442;153.014;2024-02-28T10:04:31;101741.72;;;26.53;69.87
64916;BME280;51427;-27.442;153.014;2024-02-28T10:07:11;101745.88;;;26.47;70.20
64916;BME280;51427;-27.442;153.014;2024-02-28T10:09:42;101756.44;;;26.54;70.31
64916;BME280;51427;-27.442;153.014;2024-02-28T10:12:10;101750.53;;;26.55;70.37
64916;BME280;51427;-27.442;153.014;2024-02-28T10:14:38;101766.09;;;26.56;70.33
64916;BME280;51427;-27.442;153.014;2024-02-28T10:17:06;101762.94;;;26.58;70.02
64916;BME280;51427;-27.442;153.014;2024-02-28T10:19:35;101766.09;;;26.68;70.45
64916;BME280;51427;-27.442;153.014;2024-02-28T10:22:02;101766.56;;;26.58;70.53
64916;BME280;51427;-27.442;153.014;2024-02-28T10:24:32;101763.78;;;26.58;70.44
64916;BME280;51427;-27.442;153.014;2024-02-28T10:27:03;101769.22;;;26.55;70.67
64916;BME280;51427;-27.442;153.014;2024-02-28T10:29:30;101772.50;;;26.57;70.36
64916;BME280;51427;-27.442;153.014;2024-02-28T10:32:01;101775.41;;;26.60;70.33
64916;BME280;51427;-27.442;153.014;2024-02-28T10:34:30;101772.13;;;26.58;70.37
64916;BME280;51427;-27.442;153.014;2024-02-28T10:36:59;101779.91;;;26.53;70.79
64916;BME280;51427;-27.442;153.014;2024-02-28T10:39:27;101772.38;;;26.53;70.53
64916;BME280;51427;-27.442;153.014;2024-02-28T10:41:56;101767.59;;;26.54;70.36
64916;BME280;51427;-27.442;153.014;2024-02-28T10:44:26;101775.81;;;26.50;70.33
64916;BME280;51427;-27.442;153.014;2024-02-28T10:46:55;101768.75;;;26.53;70.26
64916;BME280;51427;-27.442;153.014;2024-02-28T10:49:22;101775.81;;;26.50;70.33
64916;BME280;51427;-27.442;153.014;2024-02-28T10:51:51;101773.25;;;26.45;70.60
64916;BME280;51427;-27.442;153.014;2024-02-28T10:54:22;101781.50;;;26.42;70.76
64916;BME280;51427;-27.442;153.014;2024-02-28T10:56:52;101781.94;;;26.44;70.75
64916;BME280;51427;-27.442;153.014;2024-02-28T10:59:21;101780.34;;;26.43;70.80
64916;BME280;51427;-27.442;153.014;2024-02-28T11:01:50;101785.09;;;26.42;71.12
64916;BME280;51427;-27.442;153.014;2024-02-28T11:04:18;101785.09;;;26.42;71.00
64916;BME280;51427;-27.442;153.014;2024-02-28T11:06:54;101782.19;;;26.39;71.30
64916;BME280;51427;-27.442;153.014;2024-02-28T11:09:23;101779.72;;;26.37;71.35
64916;BME280;51427;-27.442;153.014;2024-02-28T11:11:52;101775.81;;;26.38;70.66
64916;BME280;51427;-27.442;153.014;2024-02-28T11:14:21;101781.81;;;26.40;70.55
64916;BME280;51427;-27.442;153.014;2024-02-28T11:17:02;101786.94;;;26.38;70.87
64916;BME280;51427;-27.442;153.014;2024-02-28T11:19:31;101779.72;;;26.37;70.68
64916;BME280;51427;-27.442;153.014;2024-02-28T11:22:04;101782.53;;;26.37;70.88
64916;BME280;51427;-27.442;153.014;2024-02-28T11:24:33;101789.72;;;26.38;70.69
64916;BME280;51427;-27.442;153.014;2024-02-28T11:27:03;101778.22;;;26.40;70.49
64916;BME280;51427;-27.442;153.014;2024-02-28T11:29:32;101776.13;;;26.37;70.79
64916;BME280;51427;-27.442;153.014;2024-02-28T11:32:00;101776.00;;;26.33;71.30
64916;BME280;51427;-27.442;153.014;2024-02-28T11:34:28;101776.81;;;26.34;71.06
64916;BME280;51427;-27.442;153.014;2024-02-28T11:36:55;101771.81;;;26.27;71.09
64916;BME280;51427;-27.442;153.014;2024-02-28T11:39:25;101771.00;;;26.27;71.23
64916;BME280;51427;-27.442;153.014;2024-02-28T11:41:53;101775.88;;;26.30;70.92
64916;BME280;51427;-27.442;153.014;2024-02-28T11:44:21;101778.78;;;26.33;71.08
64916;BME280;51427;-27.442;153.014;2024-02-28T11:46:49;101767.19;;;26.31;71.30
64916;BME280;51427;-27.442;153.014;2024-02-28T11:49:17;101768.34;;;26.30;70.79
64916;BME280;51427;-27.442;153.014;2024-02-28T11:51:45;101766.84;;;26.33;71.09
64916;BME280;51427;-27.442;153.014;2024-02-28T11:54:13;101766.25;;;26.27;71.04
64916;BME280;51427;-27.442;153.014;2024-02-28T11:56:41;101765.44;;;26.27;71.54
64916;BME280;51427;-27.442;153.014;2024-02-28T11:59:11;101764.63;;;26.26;71.54
64916;BME280;51427;-27.442;153.014;2024-02-28T12:01:42;101761.56;;;26.19;71.18
64916;BME280;51427;-27.442;153.014;2024-02-28T12:04:13;101757.19;;;26.18;71.75
64916;BME280;51427;-27.442;153.014;2024-02-28T12:06:41;101757.19;;;26.18;71.35
64916;BME280;51427;-27.442;153.014;2024-02-28T12:09:11;101757.03;;;26.14;71.57
64916;BME280;51427;-27.442;153.014;2024-02-28T12:11:41;101761.84;;;26.05;72.42
64916;BME280;51427;-27.442;153.014;2024-02-28T12:14:09;101749.06;;;26.04;72.37
64916;BME280;51427;-27.442;153.014;2024-02-28T12:16:38;101749.19;;;25.96;72.47
64916;BME280;51427;-27.442;153.014;2024-02-28T12:19:10;101749.19;;;25.96;72.65
64916;BME280;51427;-27.442;153.014;2024-02-28T12:21:39;101751.47;;;25.94;73.10
64916;BME280;51427;-27.442;153.014;2024-02-28T12:24:11;101745.78;;;25.90;72.97
64916;BME280;51427;-27.442;153.014;2024-02-28T12:26:39;101747.97;;;25.85;73.24